Time;durP1;ratioP1;P1;durP2;ratioP2;P2;SDS_P1;SDS_P2;PMS_P1;PMS_P2;Temp;Humidity;BMP_temperature;BMP_pressure;BME280_temperature;BME280_humidity;BME280_pressure;Samples;Min_cycle;Max_cycle;Signal;HPM_P1;HPM_P2
2021/08/08 00:00:16;;;;;;;6.32;3.90;;;;;;;;;;143739;583;47012;-55
2021/08/08 00:02:43;;;;;;;5.85;3.70;;;;;;;;;;143739;587;46020;-56
2021/08/08 00:05:12;;;;;;;3.75;3.42;;;;;;;;;;143743;578;46020;-56
2021/08/08 00:07:39;;;;;;;8.18;4.28;;;;;;;;;;143738;584;48020;-56
2021/08/08 00:10:08;;;;;;;6.37;3.80;;;;;;;;;;143738;580;47012;-55
2021/08/08 00:12:36;;;;;;;4.75;3.85;;;;;;;;;;143740;630;46020;-56
2021/08/08 00:15:05;;;;;;;5.15;3.92;;;;;;;;;;143742;574;46021;-55
2021/08/08 00:17:33;;;;;;;5.55;3.97;;;;;;;;;;143739;632;47020;-55
2021/08/08 00:20:00;;;;;;;4.87;3.62;;;;;;;;;;143737;614;47012;-55
2021/08/08 00:22:27;;;;;;;5.87;3.60;;;;;;;;;;143741;569;46020;-55
2021/08/08 00:24:54;;;;;;;4.20;3.30;;;;;;;;;;143742;740;46020;-55
2021/08/08 00:27:21;;;;;;;5.37;3.87;;;;;;;;;;143738;566;47022;-55
2021/08/08 00:29:48;;;;;;;4.35;3.67;;;;;;;;;;143739;573;47012;-56
2021/08/08 00:32:15;;;;;;;4.82;3.97;;;;;;;;;;143742;607;46020;-55
2021/08/08 00:34:42;;;;;;;7.62;4.07;;;;;;;;;;143741;577;46020;-55
2021/08/08 00:37:10;;;;;;;6.85;3.87;;;;;;;;;;143739;576;47021;-55
2021/08/08 00:39:37;;;;;;;4.20;3.45;;;;;;;;;;143738;605;47012;-55
2021/08/08 00:42:04;;;;;;;5.80;4.20;;;;;;;;;;143739;594;46020;-56
2021/08/08 00:44:31;;;;;;;12.00;3.97;;;;;;;;;;143742;603;46021;-55
2021/08/08 00:46:58;;;;;;;7.25;4.22;;;;;;;;;;143738;577;47023;-55
2021/08/08 00:49:26;;;;;;;9.73;5.57;;;;;;;;;;143738;575;47012;-55
2021/08/08 00:51:53;;;;;;;7.55;4.60;;;;;;;;;;143740;573;46021;-55
2021/08/08 00:54:20;;;;;;;6.05;3.70;;;;;;;;;;143742;564;46020;-55
2021/08/08 00:56:47;;;;;;;7.15;4.40;;;;;;;;;;143741;587;47020;-55
2021/08/08 00:59:14;;;;;;;7.05;4.32;;;;;;;;;;143741;633;47012;-55
2021/08/08 01:01:44;;;;;;;5.53;3.90;;;;;;;;;;143740;591;46020;-55
2021/08/08 01:04:26;;;;;;;6.37;4.07;;;;;;;;;;143743;593;46020;-55
2021/08/08 01:07:05;;;;;;;6.15;4.05;;;;;;;;;;143738;615;47022;-55
2021/08/08 01:09:37;;;;;;;7.60;3.80;;;;;;;;;;143738;633;47012;-55
2021/08/08 01:12:04;;;;;;;8.55;4.20;;;;;;;;;;143741;620;46020;-55
2021/08/08 01:14:33;;;;;;;7.00;3.97;;;;;;;;;;143741;603;46021;-56
2021/08/08 01:17:04;;;;;;;6.43;4.10;;;;;;;;;;143739;607;47020;-56
2021/08/08 01:19:39;;;;;;;5.87;4.32;;;;;;;;;;143738;579;47012;-55
2021/08/08 01:22:07;;;;;;;6.80;4.22;;;;;;;;;;143738;591;47013;-56
2021/08/08 01:24:35;;;;;;;5.97;4.12;;;;;;;;;;143743;577;46020;-56
2021/08/08 01:27:03;;;;;;;6.03;3.85;;;;;;;;;;143739;581;47020;-55
2021/08/08 01:29:32;;;;;;;7.15;4.25;;;;;;;;;;143739;593;47013;-55
2021/08/08 01:31:59;;;;;;;6.20;3.97;;;;;;;;;;143740;628;46020;-55
2021/08/08 01:34:26;;;;;;;4.95;4.10;;;;;;;;;;143743;566;46020;-55
2021/08/08 01:36:54;;;;;;;10.05;4.25;;;;;;;;;;143738;617;47022;-55
2021/08/08 01:39:22;;;;;;;6.87;4.50;;;;;;;;;;143737;622;47012;-56
2021/08/08 01:42:02;;;;;;;4.87;3.97;;;;;;;;;;143739;566;46020;-55
2021/08/08 01:44:34;;;;;;;5.90;3.78;;;;;;;;;;143744;580;46021;-56
2021/08/08 01:47:01;;;;;;;6.90;4.40;;;;;;;;;;143740;603;47020;-55
2021/08/08 01:49:32;;;;;;;5.78;3.85;;;;;;;;;;143738;640;47012;-55
2021/08/08 01:52:00;;;;;;;8.70;4.43;;;;;;;;;;143740;621;46021;-55
2021/08/08 01:54:28;;;;;;;5.22;3.60;;;;;;;;;;143740;564;46020;-56
2021/08/08 01:56:55;;;;;;;6.10;4.00;;;;;;;;;;143740;599;47020;-55
2021/08/08 01:59:22;;;;;;;7.10;4.32;;;;;;;;;;143739;596;47012;-56
2021/08/08 02:01:49;;;;;;;6.32;3.47;;;;;;;;;;143739;597;46020;-55
2021/08/08 02:04:27;;;;;;;5.60;3.65;;;;;;;;;;143743;564;46020;-55
2021/08/08 02:06:54;;;;;;;6.15;3.80;;;;;;;;;;143738;566;47023;-56
2021/08/08 02:09:21;;;;;;;8.02;4.18;;;;;;;;;;143738;593;47012;-55
2021/08/08 02:11:48;;;;;;;6.70;4.15;;;;;;;;;;143737;585;46020;-54
2021/08/08 02:14:16;;;;;;;6.35;4.18;;;;;;;;;;143741;607;46021;-56
2021/08/08 02:16:43;;;;;;;4.65;3.75;;;;;;;;;;143739;569;47020;-55
2021/08/08 02:19:10;;;;;;;8.15;4.20;;;;;;;;;;143736;598;47012;-55
2021/08/08 02:21:38;;;;;;;5.43;4.20;;;;;;;;;;143738;579;46021;-55
2021/08/08 02:24:05;;;;;;;5.78;3.78;;;;;;;;;;143743;594;46020;-56
2021/08/08 02:26:32;;;;;;;5.78;4.05;;;;;;;;;;143739;569;47020;-55
2021/08/08 02:28:59;;;;;;;7.75;3.35;;;;;;;;;;143738;569;47013;-55
2021/08/08 02:31:26;;;;;;;7.10;4.30;;;;;;;;;;143740;603;46020;-55
2021/08/08 02:33:53;;;;;;;6.32;4.20;;;;;;;;;;143744;595;46020;-55
2021/08/08 02:36:20;;;;;;;9.27;4.05;;;;;;;;;;143741;593;47021;-55
2021/08/08 02:38:47;;;;;;;7.15;3.83;;;;;;;;;;143741;579;46012;-55
2021/08/08 02:41:14;;;;;;;6.22;3.80;;;;;;;;;;143741;601;46020;-55
2021/08/08 02:43:41;;;;;;;7.85;4.15;;;;;;;;;;143744;577;46021;-55
2021/08/08 02:46:08;;;;;;;6.82;4.10;;;;;;;;;;143741;574;47022;-56
2021/08/08 02:48:35;;;;;;;7.72;4.28;;;;;;;;;;143740;590;47012;-56
2021/08/08 02:51:02;;;;;;;6.45;3.47;;;;;;;;;;143739;619;47018;-55
2021/08/08 02:53:29;;;;;;;6.10;3.75;;;;;;;;;;143743;603;46020;-56
2021/08/08 02:55:56;;;;;;;5.55;4.10;;;;;;;;;;143740;593;47029;-55
2021/08/08 02:58:24;;;;;;;6.15;4.10;;;;;;;;;;143739;578;47013;-55
2021/08/08 03:00:51;;;;;;;6.32;3.65;;;;;;;;;;143742;589;46020;-55
2021/08/08 03:03:18;;;;;;;4.80;3.53;;;;;;;;;;143741;566;46020;-56
2021/08/08 03:05:45;;;;;;;6.70;3.85;;;;;;;;;;143741;664;47022;-56
2021/08/08 03:08:11;;;;;;;5.37;3.80;;;;;;;;;;143740;591;46020;-55
2021/08/08 03:10:38;;;;;;;7.35;4.00;;;;;;;;;;143739;569;46020;-55
2021/08/08 03:13:06;;;;;;;7.28;3.92;;;;;;;;;;143743;569;46020;-55
2021/08/08 03:15:33;;;;;;;9.23;4.18;;;;;;;;;;143739;643;47022;-55
2021/08/08 03:18:00;;;;;;;4.35;3.62;;;;;;;;;;143738;605;47012;-54
2021/08/08 03:20:27;;;;;;;9.38;3.65;;;;;;;;;;143742;651;46020;-56
2021/08/08 03:22:54;;;;;;;5.15;3.70;;;;;;;;;;143743;578;46021;-56
2021/08/08 03:25:21;;;;;;;5.05;3.70;;;;;;;;;;143739;593;47022;-56
2021/08/08 03:27:50;;;;;;;7.25;3.67;;;;;;;;;;143739;569;46026;-56
2021/08/08 03:30:17;;;;;;;11.48;4.50;;;;;;;;;;143742;627;46021;-56
2021/08/08 03:32:44;;;;;;;8.00;4.03;;;;;;;;;;143743;570;47014;-55
2021/08/08 03:35:12;;;;;;;7.72;3.90;;;;;;;;;;143738;594;47022;-56
2021/08/08 03:37:39;;;;;;;9.35;4.20;;;;;;;;;;143740;596;46020;-55
2021/08/08 03:40:08;;;;;;;10.88;4.35;;;;;;;;;;143739;595;46020;-55
2021/08/08 03:42:35;;;;;;;12.10;4.35;;;;;;;;;;143745;586;46020;-56
2021/08/08 03:45:02;;;;;;;7.57;4.00;;;;;;;;;;143739;586;47023;-55
2021/08/08 03:47:29;;;;;;;11.90;4.82;;;;;;;;;;143740;644;47012;-55
2021/08/08 03:49:56;;;;;;;21.12;7.95;;;;;;;;;;143742;637;46020;-55
2021/08/08 03:52:23;;;;;;;20.95;6.32;;;;;;;;;;143743;595;46020;-56
2021/08/08 03:54:50;;;;;;;22.73;10.10;;;;;;;;;;143740;573;47022;-55
2021/08/08 03:57:17;;;;;;;29.87;9.85;;;;;;;;;;143740;586;47013;-55
2021/08/08 03:59:44;;;;;;;19.55;9.02;;;;;;;;;;143740;686;46021;-56
2021/08/08 04:02:12;;;;;;;12.98;6.22;;;;;;;;;;143743;607;46020;-56
2021/08/08 04:04:39;;;;;;;12.18;5.65;;;;;;;;;;143740;794;47021;-55
2021/08/08 04:07:06;;;;;;;12.80;5.93;;;;;;;;;;143739;581;47012;-55
2021/08/08 04:09:33;;;;;;;17.60;7.87;;;;;;;;;;143742;564;46020;-56
2021/08/08 04:12:00;;;;;;;11.20;6.65;;;;;;;;;;143743;673;46020;-55
2021/08/08 04:14:27;;;;;;;21.48;8.10;;;;;;;;;;143741;617;47020;-56
2021/08/08 04:16:53;;;;;;;20.88;10.38;;;;;;;;;;143741;594;47012;-56
2021/08/08 04:19:20;;;;;;;15.95;6.45;;;;;;;;;;143740;585;46020;-56
2021/08/08 04:21:47;;;;;;;29.05;9.15;;;;;;;;;;143742;635;47021;-56
2021/08/08 04:24:15;;;;;;;23.75;9.35;;;;;;;;;;143741;587;47022;-56
2021/08/08 04:26:41;;;;;;;13.68;6.60;;;;;;;;;;143738;579;47013;-56
2021/08/08 04:29:08;;;;;;;14.13;7.40;;;;;;;;;;143744;570;46021;-56
2021/08/08 04:31:35;;;;;;;14.70;9.95;;;;;;;;;;143746;632;46020;-57
2021/08/08 04:34:03;;;;;;;19.52;12.85;;;;;;;;;;143740;567;47022;-56
2021/08/08 04:36:30;;;;;;;15.20;9.88;;;;;;;;;;143739;635;47012;-56
2021/08/08 04:38:57;;;;;;;13.60;8.15;;;;;;;;;;143741;681;46020;-56
2021/08/08 04:41:24;;;;;;;11.15;7.78;;;;;;;;;;143744;635;46020;-57
2021/08/08 04:43:51;;;;;;;27.60;12.07;;;;;;;;;;143741;585;47020;-56
2021/08/08 04:46:18;;;;;;;18.15;8.45;;;;;;;;;;143740;615;47012;-56
2021/08/08 04:48:45;;;;;;;16.65;8.07;;;;;;;;;;143741;707;46020;-57
2021/08/08 04:51:12;;;;;;;22.00;9.02;;;;;;;;;;143744;580;46021;-56
2021/08/08 04:53:39;;;;;;;24.17;9.65;;;;;;;;;;143740;603;47022;-56
2021/08/08 04:56:06;;;;;;;14.25;7.90;;;;;;;;;;143740;564;47012;-57
2021/08/08 04:58:33;;;;;;;14.57;7.30;;;;;;;;;;143741;632;46021;-56
2021/08/08 05:01:00;;;;;;;13.73;7.32;;;;;;;;;;143744;624;46020;-56
2021/08/08 05:03:27;;;;;;;33.78;20.45;;;;;;;;;;143740;590;47022;-56
2021/08/08 05:05:54;;;;;;;26.23;23.38;;;;;;;;;;143740;589;47012;-56
2021/08/08 05:08:21;;;;;;;26.35;23.17;;;;;;;;;;143741;573;46020;-56
2021/08/08 05:10:49;;;;;;;29.67;21.98;;;;;;;;;;143743;595;46020;-56
2021/08/08 05:13:16;;;;;;;15.93;10.63;;;;;;;;;;143740;599;47023;-56
2021/08/08 05:15:43;;;;;;;24.17;10.40;;;;;;;;;;143738;615;47012;-56
2021/08/08 05:18:10;;;;;;;16.40;9.70;;;;;;;;;;143740;601;46020;-57
2021/08/08 05:20:37;;;;;;;24.20;11.60;;;;;;;;;;143745;566;46021;-57
2021/08/08 05:23:04;;;;;;;15.68;10.27;;;;;;;;;;143742;564;47020;-57
2021/08/08 05:25:31;;;;;;;19.20;10.70;;;;;;;;;;143740;588;47012;-57
2021/08/08 05:27:58;;;;;;;18.50;10.48;;;;;;;;;;143741;601;46021;-56
2021/08/08 05:30:25;;;;;;;27.35;13.15;;;;;;;;;;143746;592;46020;-57
2021/08/08 05:32:52;;;;;;;32.20;15.68;;;;;;;;;;143739;717;47021;-57
2021/08/08 05:35:20;;;;;;;33.38;16.20;;;;;;;;;;143742;575;47012;-57
2021/08/08 05:37:46;;;;;;;32.25;17.02;;;;;;;;;;143740;612;46020;-57
2021/08/08 05:40:14;;;;;;;43.83;22.73;;;;;;;;;;143743;573;46020;-56
2021/08/08 05:42:48;;;;;;;41.70;22.90;;;;;;;;;;143742;601;47021;-57
2021/08/08 05:45:15;;;;;;;;;;;;;;;;;;143744;980;47012;-56
2021/08/08 05:47:42;;;;;;;41.67;21.25;;;;;;;;;;143746;575;46020;-57
2021/08/08 05:50:09;;;;;;;39.10;19.12;;;;;;;;;;143745;610;46021;-56
2021/08/08 05:52:36;;;;;;;32.72;15.00;;;;;;;;;;143742;587;47020;-57
2021/08/08 05:55:03;;;;;;;26.00;13.38;;;;;;;;;;143740;591;47012;-57
2021/08/08 05:57:30;;;;;;;27.40;12.80;;;;;;;;;;143742;600;46021;-56
2021/08/08 05:59:57;;;;;;;32.22;12.88;;;;;;;;;;143745;597;46020;-57
2021/08/08 06:02:24;;;;;;;22.87;12.25;;;;;;;;;;143740;589;47020;-56
2021/08/08 06:04:51;;;;;;;21.23;11.48;;;;;;;;;;143740;589;47012;-57
2021/08/08 06:07:18;;;;;;;18.45;11.50;;;;;;;;;;143740;573;46020;-55
2021/08/08 06:09:45;;;;;;;26.20;11.82;;;;;;;;;;143745;601;46020;-56
2021/08/08 06:12:12;;;;;;;23.52;11.60;;;;;;;;;;143742;601;47021;-56
2021/08/08 06:14:39;;;;;;;21.60;10.80;;;;;;;;;;143740;574;47012;-55
2021/08/08 06:17:06;;;;;;;21.62;10.75;;;;;;;;;;143741;591;46020;-54
2021/08/08 06:19:33;;;;;;;21.25;10.05;;;;;;;;;;143745;650;46021;-55
2021/08/08 06:22:00;;;;;;;27.65;12.13;;;;;;;;;;143740;600;47020;-54
2021/08/08 06:24:27;;;;;;;18.90;10.93;;;;;;;;;;143740;624;47012;-55
2021/08/08 06:26:54;;;;;;;22.50;11.23;;;;;;;;;;143740;592;46021;-54
2021/08/08 06:29:21;;;;;;;21.42;10.45;;;;;;;;;;143742;577;46020;-54
2021/08/08 06:31:48;;;;;;;21.20;9.75;;;;;;;;;;143741;569;47029;-54
2021/08/08 06:34:15;;;;;;;17.87;9.05;;;;;;;;;;143738;573;47012;-53
2021/08/08 06:36:42;;;;;;;20.37;9.07;;;;;;;;;;143742;564;46020;-55
2021/08/08 06:39:10;;;;;;;23.85;9.77;;;;;;;;;;143745;580;46020;-54
2021/08/08 06:41:37;;;;;;;17.85;10.35;;;;;;;;;;143742;592;47020;-53
2021/08/08 06:44:04;;;;;;;16.58;9.40;;;;;;;;;;143741;734;47012;-54
2021/08/08 06:46:31;;;;;;;18.42;8.23;;;;;;;;;;143743;566;46020;-53
2021/08/08 06:48:58;;;;;;;15.93;7.35;;;;;;;;;;143743;715;46021;-52
2021/08/08 06:51:25;;;;;;;12.27;6.85;;;;;;;;;;143739;601;48020;-54
2021/08/08 06:53:52;;;;;;;12.20;7.20;;;;;;;;;;143739;587;47012;-54
2021/08/08 06:56:19;;;;;;;11.00;7.62;;;;;;;;;;143741;593;46020;-52
2021/08/08 06:58:46;;;;;;;11.63;7.57;;;;;;;;;;143744;585;46020;-54
2021/08/08 07:01:19;;;;;;;15.90;7.05;;;;;;;;;;143739;606;47022;-53
2021/08/08 07:03:46;;;;;;;10.10;6.45;;;;;;;;;;143739;585;47013;-54
2021/08/08 07:06:13;;;;;;;8.25;6.10;;;;;;;;;;143743;747;46020;-54
2021/08/08 07:08:40;;;;;;;10.30;7.12;;;;;;;;;;143744;638;46020;-53
2021/08/08 07:11:07;;;;;;;13.95;7.90;;;;;;;;;;143741;602;47022;-53
2021/08/08 07:13:38;;;;;;;10.07;7.43;;;;;;;;;;143739;583;47012;-53
2021/08/08 07:16:05;;;;;;;10.60;5.93;;;;;;;;;;143736;570;46020;-55
2021/08/08 07:18:32;;;;;;;11.85;6.95;;;;;;;;;;143743;590;46020;-54
2021/08/08 07:21:00;;;;;;;8.95;5.68;;;;;;;;;;143740;606;47023;-53
2021/08/08 07:23:27;;;;;;;12.10;5.75;;;;;;;;;;143739;595;47012;-53
2021/08/08 07:25:54;;;;;;;12.05;6.32;;;;;;;;;;143741;594;46020;-54
2021/08/08 07:28:21;;;;;;;7.85;6.12;;;;;;;;;;143745;571;46021;-54
2021/08/08 07:30:48;;;;;;;16.70;6.93;;;;;;;;;;143740;587;47022;-53
2021/08/08 07:33:15;;;;;;;11.77;5.85;;;;;;;;;;143741;594;47012;-53
2021/08/08 07:35:42;;;;;;;8.32;4.70;;;;;;;;;;143741;598;46021;-54
2021/08/08 07:38:09;;;;;;;8.40;5.50;;;;;;;;;;143746;589;46020;-54
2021/08/08 07:40:36;;;;;;;11.27;6.43;;;;;;;;;;143741;613;47022;-55
2021/08/08 07:43:04;;;;;;;6.82;4.85;;;;;;;;;;143741;642;47012;-54
2021/08/08 07:45:31;;;;;;;10.02;5.87;;;;;;;;;;143740;601;46020;-53
2021/08/08 07:47:58;;;;;;;7.18;5.25;;;;;;;;;;143743;600;46020;-54
2021/08/08 07:50:25;;;;;;;9.32;5.22;;;;;;;;;;143742;638;47020;-53
2021/08/08 07:52:52;;;;;;;9.35;5.47;;;;;;;;;;143741;602;47012;-54
2021/08/08 07:55:19;;;;;;;7.68;4.82;;;;;;;;;;143742;589;46020;-54
2021/08/08 07:57:46;;;;;;;7.78;4.80;;;;;;;;;;143745;594;46021;-54
2021/08/08 08:00:14;;;;;;;11.12;4.60;;;;;;;;;;143741;678;47022;-54
2021/08/08 08:02:41;;;;;;;6.72;4.65;;;;;;;;;;143738;577;47013;-54
2021/08/08 08:05:08;;;;;;;9.68;4.70;;;;;;;;;;143741;646;46021;-54
2021/08/08 08:07:36;;;;;;;10.88;6.03;;;;;;;;;;143745;659;46020;-54
2021/08/08 08:10:04;;;;;;;10.52;5.90;;;;;;;;;;143743;631;47020;-54
2021/08/08 08:12:32;;;;;;;7.15;5.12;;;;;;;;;;143738;604;47012;-55
2021/08/08 08:14:59;;;;;;;8.65;5.18;;;;;;;;;;143743;651;46022;-55
2021/08/08 08:17:26;;;;;;;9.77;4.20;;;;;;;;;;143743;589;46018;-55
2021/08/08 08:19:53;;;;;;;7.65;4.90;;;;;;;;;;143740;587;47023;-55
2021/08/08 08:22:20;;;;;;;8.85;4.53;;;;;;;;;;143740;571;47012;-55
2021/08/08 08:24:47;;;;;;;8.38;5.25;;;;;;;;;;143743;687;46020;-55
2021/08/08 08:27:14;;;;;;;7.22;4.93;;;;;;;;;;143746;678;46021;-55
2021/08/08 08:29:41;;;;;;;14.27;6.35;;;;;;;;;;143742;590;47020;-55
2021/08/08 08:32:08;;;;;;;6.47;4.97;;;;;;;;;;143740;669;47013;-55
2021/08/08 08:34:36;;;;;;;11.05;5.55;;;;;;;;;;143742;619;46021;-55
2021/08/08 08:37:04;;;;;;;8.00;5.60;;;;;;;;;;143745;570;46020;-54
2021/08/08 08:39:31;;;;;;;8.07;6.05;;;;;;;;;;143741;592;47021;-55
2021/08/08 08:42:01;;;;;;;10.35;7.18;;;;;;;;;;143739;584;47012;-55
2021/08/08 08:44:30;;;;;;;9.55;5.50;;;;;;;;;;143742;646;46020;-55
2021/08/08 08:46:58;;;;;;;11.52;4.95;;;;;;;;;;143746;668;46020;-55
2021/08/08 08:49:28;;;;;;;7.40;4.85;;;;;;;;;;143738;592;48020;-55
2021/08/08 08:52:01;;;;;;;8.35;6.50;;;;;;;;;;143745;601;47012;-55
2021/08/08 08:54:29;;;;;;;11.48;6.20;;;;;;;;;;143739;586;46020;-56
2021/08/08 08:56:58;;;;;;;10.57;5.72;;;;;;;;;;143740;586;47021;-55
2021/08/08 08:59:26;;;;;;;18.70;9.13;;;;;;;;;;143739;579;47020;-56
2021/08/08 09:01:53;;;;;;;11.63;7.53;;;;;;;;;;143737;581;47013;-55
2021/08/08 09:04:20;;;;;;;13.45;8.40;;;;;;;;;;143740;579;46021;-56
2021/08/08 09:06:47;;;;;;;15.88;9.07;;;;;;;;;;143743;564;46020;-56
2021/08/08 09:09:15;;;;;;;10.25;8.10;;;;;;;;;;143738;645;47022;-55
2021/08/08 09:11:44;;;;;;;14.90;9.57;;;;;;;;;;143738;587;47012;-54
2021/08/08 09:14:14;;;;;;;13.73;9.48;;;;;;;;;;143740;577;46020;-56
2021/08/08 09:16:44;;;;;;;17.75;10.65;;;;;;;;;;143743;579;46020;-56
2021/08/08 09:19:31;;;;;;;16.98;10.95;;;;;;;;;;143739;606;47021;-55
2021/08/08 09:21:58;;;;;;;15.13;11.73;;;;;;;;;;143740;610;47012;-55
2021/08/08 09:24:36;;;;;;;18.25;14.05;;;;;;;;;;143738;594;46020;-56
2021/08/08 09:27:14;;;;;;;18.20;11.90;;;;;;;;;;143741;565;46021;-56
2021/08/08 09:29:43;;;;;;;17.65;11.65;;;;;;;;;;143739;565;47020;-55
2021/08/08 09:32:10;;;;;;;16.20;13.82;;;;;;;;;;143738;647;47013;-56
2021/08/08 09:34:42;;;;;;;22.73;15.68;;;;;;;;;;143739;630;46021;-56
2021/08/08 09:37:25;;;;;;;23.33;14.85;;;;;;;;;;143743;575;46020;-56
2021/08/08 09:39:54;;;;;;;17.08;12.57;;;;;;;;;;143740;612;47021;-55
2021/08/08 09:42:25;;;;;;;21.70;13.93;;;;;;;;;;143740;582;47012;-55
2021/08/08 09:44:57;;;;;;;17.60;12.32;;;;;;;;;;143739;612;46020;-55
2021/08/08 09:47:48;;;;;;;13.45;10.40;;;;;;;;;;143742;621;46020;-56
2021/08/08 09:50:20;;;;;;;12.73;10.50;;;;;;;;;;143739;606;47020;-56
2021/08/08 09:52:52;;;;;;;17.20;11.00;;;;;;;;;;143740;563;46012;-55
2021/08/08 09:55:33;;;;;;;16.95;9.50;;;;;;;;;;143740;619;46020;-55
2021/08/08 09:58:00;;;;;;;13.07;9.60;;;;;;;;;;143738;590;48020;-54
2021/08/08 10:00:35;;;;;;;19.23;10.60;;;;;;;;;;143739;611;47020;-54
2021/08/08 10:03:07;;;;;;;12.07;8.80;;;;;;;;;;143737;617;47012;-55
2021/08/08 10:05:36;;;;;;;14.23;9.20;;;;;;;;;;143739;565;46020;-54
2021/08/08 10:08:10;;;;;;;17.37;10.07;;;;;;;;;;143741;632;46020;-55
2021/08/08 10:10:38;;;;;;;14.52;8.93;;;;;;;;;;143739;636;47021;-56
2021/08/08 10:13:52;;;;;;;13.25;9.82;;;;;;;;;;143738;591;47012;-56
2021/08/08 10:16:21;;;;;;;13.02;9.23;;;;;;;;;;143740;578;46020;-56
2021/08/08 10:18:54;;;;;;;23.02;10.50;;;;;;;;;;143744;607;46021;-56
2021/08/08 10:21:22;;;;;;;17.00;8.70;;;;;;;;;;143739;564;47022;-57
2021/08/08 10:23:50;;;;;;;16.95;8.25;;;;;;;;;;143737;591;47013;-56
2021/08/08 10:26:19;;;;;;;15.63;9.18;;;;;;;;;;143738;597;46021;-56
2021/08/08 10:28:49;;;;;;;14.50;8.60;;;;;;;;;;143742;686;46020;-56
2021/08/08 10:31:17;;;;;;;19.80;7.80;;;;;;;;;;143739;588;47020;-57
2021/08/08 10:33:46;;;;;;;16.62;8.80;;;;;;;;;;143738;564;47012;-56
2021/08/08 10:36:28;;;;;;;12.65;7.70;;;;;;;;;;143739;692;46020;-56
2021/08/08 10:39:15;;;;;;;15.52;9.30;;;;;;;;;;143742;616;46020;-56
2021/08/08 10:41:56;;;;;;;19.45;9.70;;;;;;;;;;143738;569;47023;-56
2021/08/08 10:44:25;;;;;;;12.73;8.88;;;;;;;;;;143740;570;46012;-56
2021/08/08 10:46:54;;;;;;;12.77;8.80;;;;;;;;;;143741;606;46020;-57
2021/08/08 10:49:31;;;;;;;12.32;8.30;;;;;;;;;;143744;568;46020;-56
2021/08/08 10:52:08;;;;;;;13.13;6.40;;;;;;;;;;143741;622;47020;-56
2021/08/08 10:54:45;;;;;;;10.55;7.78;;;;;;;;;;143738;665;47013;-55
2021/08/08 10:57:13;;;;;;;12.13;8.40;;;;;;;;;;143739;668;46020;-56
2021/08/08 10:59:45;;;;;;;12.65;7.50;;;;;;;;;;143744;616;46020;-56
2021/08/08 11:02:16;;;;;;;11.85;6.93;;;;;;;;;;143740;713;47021;-57
2021/08/08 11:04:43;;;;;;;11.80;8.65;;;;;;;;;;143738;573;47012;-56
2021/08/08 11:07:11;;;;;;;13.23;9.23;;;;;;;;;;143739;603;46020;-55
2021/08/08 11:09:40;;;;;;;11.05;7.72;;;;;;;;;;143743;632;46020;-56
2021/08/08 11:12:08;;;;;;;11.52;8.60;;;;;;;;;;143739;647;47020;-56
2021/08/08 11:14:35;;;;;;;11.43;8.25;;;;;;;;;;143738;585;47012;-55
2021/08/08 11:17:06;;;;;;;13.35;8.95;;;;;;;;;;143740;767;46020;-57
2021/08/08 11:19:39;;;;;;;14.20;8.88;;;;;;;;;;143743;653;46020;-57
2021/08/08 11:22:16;;;;;;;14.70;9.48;;;;;;;;;;143741;684;47020;-56
2021/08/08 11:24:57;;;;;;;13.48;8.52;;;;;;;;;;143738;571;47012;-56
2021/08/08 11:27:39;;;;;;;14.63;9.65;;;;;;;;;;143740;575;46020;-56
2021/08/08 11:30:14;;;;;;;11.20;7.70;;;;;;;;;;143742;604;46020;-56
2021/08/08 11:32:42;;;;;;;12.23;8.80;;;;;;;;;;143739;589;47021;-55
2021/08/08 11:35:27;;;;;;;13.90;7.72;;;;;;;;;;143738;644;47012;-57
2021/08/08 11:37:54;;;;;;;8.38;6.43;;;;;;;;;;143739;615;46020;-56
2021/08/08 11:40:31;;;;;;;10.38;8.55;;;;;;;;;;143742;590;46021;-57
2021/08/08 11:43:07;;;;;;;16.20;8.93;;;;;;;;;;143739;595;47020;-56
2021/08/08 11:45:48;;;;;;;9.57;7.03;;;;;;;;;;143739;664;47012;-55
2021/08/08 11:48:19;;;;;;;11.07;8.15;;;;;;;;;;143739;569;46021;-55
2021/08/08 11:51:06;;;;;;;10.07;7.53;;;;;;;;;;143742;569;46020;-56
2021/08/08 11:53:37;;;;;;;11.68;8.32;;;;;;;;;;143740;632;47021;-57
2021/08/08 11:56:16;;;;;;;7.80;5.80;;;;;;;;;;143739;608;47012;-57
2021/08/08 11:58:52;;;;;;;9.95;5.50;;;;;;;;;;143741;569;46020;-56
2021/08/08 12:01:20;;;;;;;10.13;6.28;;;;;;;;;;143740;569;47012;-56
2021/08/08 12:03:48;;;;;;;7.93;6.10;;;;;;;;;;143738;576;47023;-56
2021/08/08 12:06:18;;;;;;;8.43;5.43;;;;;;;;;;143737;646;47012;-55
2021/08/08 12:08:47;;;;;;;12.43;7.03;;;;;;;;;;143740;664;46020;-55
2021/08/08 12:11:15;;;;;;;6.85;4.90;;;;;;;;;;143744;621;46020;-56
2021/08/08 12:13:42;;;;;;;7.60;4.82;;;;;;;;;;143739;643;47020;-56
2021/08/08 12:16:13;;;;;;;7.45;5.22;;;;;;;;;;143738;615;47013;-57
2021/08/08 12:18:40;;;;;;;8.63;5.55;;;;;;;;;;143738;648;46020;-56
2021/08/08 12:21:19;;;;;;;6.47;4.37;;;;;;;;;;143743;573;46020;-56
2021/08/08 12:23:46;;;;;;;6.47;5.32;;;;;;;;;;143739;615;47022;-56
2021/08/08 12:26:24;;;;;;;8.63;5.45;;;;;;;;;;143737;590;47012;-56
2021/08/08 12:29:06;;;;;;;7.05;4.47;;;;;;;;;;143738;565;46020;-57
2021/08/08 12:31:41;;;;;;;11.90;4.82;;;;;;;;;;143741;627;46021;-57
2021/08/08 12:34:09;;;;;;;7.00;5.22;;;;;;;;;;143741;569;47020;-56
2021/08/08 12:36:44;;;;;;;10.40;4.53;;;;;;;;;;143738;682;47012;-56
2021/08/08 12:39:11;;;;;;;5.78;3.97;;;;;;;;;;143739;642;46021;-57
2021/08/08 12:41:40;;;;;;;14.02;5.37;;;;;;;;;;143744;598;46020;-57
2021/08/08 12:44:09;;;;;;;7.20;4.82;;;;;;;;;;143739;568;47022;-56
2021/08/08 12:46:38;;;;;;;8.15;5.40;;;;;;;;;;143740;565;47012;-56
2021/08/08 12:49:07;;;;;;;6.30;4.97;;;;;;;;;;143741;576;46020;-56
2021/08/08 12:51:34;;;;;;;7.43;4.43;;;;;;;;;;143743;626;46020;-56
2021/08/08 12:54:01;;;;;;;11.80;5.07;;;;;;;;;;143738;649;47022;-56
2021/08/08 12:56:28;;;;;;;9.85;4.78;;;;;;;;;;143738;615;47012;-57
2021/08/08 12:58:56;;;;;;;7.53;4.32;;;;;;;;;;143738;566;46020;-57
2021/08/08 13:01:32;;;;;;;6.80;3.90;;;;;;;;;;143743;658;46020;-56
2021/08/08 13:03:59;;;;;;;11.65;4.43;;;;;;;;;;143741;660;47020;-56
2021/08/08 13:06:26;;;;;;;5.50;4.10;;;;;;;;;;143738;638;47012;-56
2021/08/08 13:08:54;;;;;;;9.00;4.47;;;;;;;;;;143739;578;46021;-56
2021/08/08 13:11:21;;;;;;;5.18;3.30;;;;;;;;;;143742;584;46020;-57
2021/08/08 13:13:47;;;;;;;7.05;4.12;;;;;;;;;;143738;617;47022;-57
2021/08/08 13:16:14;;;;;;;5.47;3.70;;;;;;;;;;143740;697;47012;-56
2021/08/08 13:18:42;;;;;;;6.70;4.03;;;;;;;;;;143739;570;46020;-56
2021/08/08 13:21:11;;;;;;;6.25;3.55;;;;;;;;;;143744;619;46020;-56
2021/08/08 13:23:38;;;;;;;5.82;3.72;;;;;;;;;;143741;624;47021;-58
2021/08/08 13:26:05;;;;;;;6.10;3.65;;;;;;;;;;143737;585;47012;-56
2021/08/08 13:28:33;;;;;;;4.87;3.65;;;;;;;;;;143740;606;46020;-56
2021/08/08 13:31:00;;;;;;;7.30;3.85;;;;;;;;;;143741;621;46021;-57
2021/08/08 13:33:27;;;;;;;4.82;3.72;;;;;;;;;;143739;580;47023;-57
2021/08/08 13:35:54;;;;;;;5.60;4.07;;;;;;;;;;143739;596;47012;-57
2021/08/08 13:38:21;;;;;;;5.78;3.65;;;;;;;;;;143739;616;46020;-57
2021/08/08 13:40:48;;;;;;;5.65;3.75;;;;;;;;;;143742;593;46020;-57
2021/08/08 13:43:15;;;;;;;5.53;4.03;;;;;;;;;;143740;664;47020;-57
2021/08/08 13:45:42;;;;;;;8.18;3.47;;;;;;;;;;143740;695;47013;-57
2021/08/08 13:48:10;;;;;;;11.00;3.80;;;;;;;;;;143740;646;46020;-57
2021/08/08 13:50:39;;;;;;;7.72;3.45;;;;;;;;;;143743;651;46020;-58
2021/08/08 13:53:06;;;;;;;8.95;3.60;;;;;;;;;;143738;578;47021;-57
2021/08/08 13:55:33;;;;;;;9.45;3.90;;;;;;;;;;143738;606;47012;-57
2021/08/08 13:58:00;;;;;;;5.93;3.60;;;;;;;;;;143739;651;46020;-57
2021/08/08 14:00:27;;;;;;;5.60;3.20;;;;;;;;;;143741;637;46021;-57
2021/08/08 14:02:54;;;;;;;12.77;3.60;;;;;;;;;;143739;728;47020;-57
2021/08/08 14:05:21;;;;;;;5.50;3.72;;;;;;;;;;143737;625;47012;-57
2021/08/08 14:07:48;;;;;;;9.20;3.62;;;;;;;;;;143739;570;46020;-58
2021/08/08 14:10:15;;;;;;;6.03;3.33;;;;;;;;;;143743;588;46021;-57
2021/08/08 14:12:46;;;;;;;6.43;3.45;;;;;;;;;;143738;675;47022;-58
2021/08/08 14:15:13;;;;;;;6.90;3.40;;;;;;;;;;143737;631;47013;-57
2021/08/08 14:17:40;;;;;;;4.45;3.00;;;;;;;;;;143740;608;46021;-57
2021/08/08 14:20:08;;;;;;;8.55;4.12;;;;;;;;;;143742;613;46020;-58
2021/08/08 14:22:35;;;;;;;5.32;3.17;;;;;;;;;;143740;588;47021;-57
2021/08/08 14:25:02;;;;;;;4.57;3.20;;;;;;;;;;143738;626;47012;-58
2021/08/08 14:27:29;;;;;;;6.82;3.60;;;;;;;;;;143741;566;46020;-58
2021/08/08 14:29:56;;;;;;;6.22;3.80;;;;;;;;;;143742;662;46020;-57
2021/08/08 14:32:23;;;;;;;5.72;3.42;;;;;;;;;;143737;626;47023;-57
2021/08/08 14:34:50;;;;;;;4.15;2.85;;;;;;;;;;143737;596;47012;-57
2021/08/08 14:37:17;;;;;;;7.72;3.75;;;;;;;;;;143742;715;46020;-57
2021/08/08 14:39:44;;;;;;;6.30;3.10;;;;;;;;;;143743;678;46021;-56
2021/08/08 14:42:11;;;;;;;5.72;3.33;;;;;;;;;;143739;624;47020;-57